Time;durP1;ratioP1;P1;durP2;ratioP2;P2;SDS_P1;SDS_P2;PMS_P1;PMS_P2;Temp;Humidity;BMP_temperature;BMP_pressure;BME280_temperature;BME280_humidity;BME280_pressure;Samples;Min_cycle;Max_cycle;Signal;HPM_P1;HPM_P2
2021/08/19 00:01:38;;;;;;;;;;;;;;;21.28;53.61;99906.63;5106891;27;20316;-61
2021/08/19 00:04:06;;;;;;;;;;;;;;;21.29;53.61;99905.63;5110809;27;19934;-59
2021/08/19 00:06:34;;;;;;;;;;;;;;;21.27;53.38;99903.06;5113154;28;19931;-61
2021/08/19 00:09:02;;;;;;;;;;;;;;;21.27;53.33;99907.59;5109513;27;19999;-61
2021/08/19 00:11:30;;;;;;;;;;;;;;;21.26;53.45;99909.41;5106862;28;19985;-62
2021/08/19 00:13:58;;;;;;;;;;;;;;;21.23;53.67;99909.69;5107452;28;19946;-61
2021/08/19 00:16:26;;;;;;;;;;;;;;;21.22;53.66;99906.16;5112085;27;19927;-61
2021/08/19 00:18:56;;;;;;;;;;;;;;;21.22;53.68;99902.59;5108759;27;19932;-61
2021/08/19 00:21:23;;;;;;;;;;;;;;;21.22;53.65;99905.28;5112212;27;20006;-61
2021/08/19 00:23:52;;;;;;;;;;;;;;;21.23;53.67;99910.56;5113809;27;19927;-61
2021/08/19 00:26:20;;;;;;;;;;;;;;;21.23;53.79;99913.25;5102456;27;19932;-61
2021/08/19 00:28:48;;;;;;;;;;;;;;;21.22;53.72;99908.84;5104611;28;19981;-61
2021/08/19 00:31:16;;;;;;;;;;;;;;;21.22;53.81;99900.78;5108432;27;20203;-61
2021/08/19 00:33:45;;;;;;;;;;;;;;;21.23;53.99;99910.56;5109439;27;19971;-60
2021/08/19 00:36:14;;;;;;;;;;;;;;;21.23;53.81;99907.88;5106699;27;20426;-60
2021/08/19 00:38:42;;;;;;;;;;;;;;;21.21;54.04;99909.00;5109506;28;19977;-57
2021/08/19 00:41:11;;;;;;;;;;;;;;;21.22;53.81;99908.84;5104446;27;20171;-61
2021/08/19 00:43:39;;;;;;;;;;;;;;;21.22;53.67;99916.91;5110727;27;20035;-61
2021/08/19 00:46:22;;;;;;;;;;;;;;;21.22;53.97;99907.97;5105664;27;20389;-60
2021/08/19 00:48:50;;;;;;;;;;;;;;;21.20;54.28;99907.28;5112702;28;19932;-61
2021/08/19 00:51:19;;;;;;;;;;;;;;;21.21;54.08;99915.22;5107297;27;19943;-56
2021/08/19 00:53:47;;;;;;;;;;;;;;;21.22;54.07;99918.72;5104977;27;19934;-54
2021/08/19 00:56:16;;;;;;;;;;;;;;;21.22;53.93;99913.34;5102404;28;19932;-56
2021/08/19 00:58:44;;;;;;;;;;;;;;;21.19;53.97;99917.16;5099522;27;19935;-57
2021/08/19 01:01:12;;;;;;;;;;;;;;;21.19;54.08;99921.69;5109923;27;19928;-53
2021/08/19 01:03:40;;;;;;;;;;;;;;;21.18;54.11;99912.78;5098965;28;19924;-56
2021/08/19 01:06:08;;;;;;;;;;;;;;;21.19;53.96;99927.91;5130070;27;20515;-57
2021/08/19 01:08:38;;;;;;;;;;;;;;;21.20;54.08;99926.09;5105103;28;19992;-56
2021/08/19 01:11:06;;;;;;;;;;;;;;;21.20;54.03;99920.72;5098281;28;20053;-57
2021/08/19 01:13:34;;;;;;;;;;;;;;;21.19;53.95;99924.38;5099898;28;19954;-53
2021/08/19 01:16:04;;;;;;;;;;;;;;;21.20;53.72;99928.78;5094234;27;19928;-54
2021/08/19 01:18:39;;;;;;;;;;;;;;;21.20;53.77;99920.72;5096080;27;19967;-54
2021/08/19 01:21:07;;;;;;;;;;;;;;;21.18;53.69;99915.47;5097064;28;19947;-57
2021/08/19 01:23:35;;;;;;;;;;;;;;;21.19;53.49;99919.00;5106921;27;19924;-56
2021/08/19 01:26:07;;;;;;;;;;;;;;;21.17;53.65;99932.59;5095588;28;19923;-53
2021/08/19 01:28:37;;;;;;;;;;;;;;;21.17;53.64;99934.41;5100157;27;20569;-56
2021/08/19 01:31:05;;;;;;;;;;;;;;;21.15;53.61;99931.00;5097868;27;19932;-57
2021/08/19 01:33:34;;;;;;;;;;;;;;;21.15;53.66;99931.84;5101487;28;19932;-52
2021/08/19 01:36:03;;;;;;;;;;;;;;;21.14;53.55;99935.53;5096613;27;19970;-52
2021/08/19 01:38:31;;;;;;;;;;;;;;;21.14;53.58;99932.00;5095081;28;19931;-57
2021/08/19 01:40:59;;;;;;;;;;;;;;;21.14;53.77;99942.75;5096331;28;19934;-52
2021/08/19 01:43:28;;;;;;;;;;;;;;;21.14;53.77;99929.31;5101177;28;19924;-57
2021/08/19 01:45:58;;;;;;;;;;;;;;;21.14;53.64;99945.44;5102980;27;20061;-53
2021/08/19 01:48:26;;;;;;;;;;;;;;;21.15;53.68;99933.69;5095053;28;19987;-57
2021/08/19 01:50:54;;;;;;;;;;;;;;;21.14;53.77;99940.91;5092778;28;19942;-52
2021/08/19 01:53:23;;;;;;;;;;;;;;;21.14;53.69;99934.69;5090573;28;20537;-56
2021/08/19 01:55:51;;;;;;;;;;;;;;;21.14;53.71;99945.44;5096959;27;19938;-57
2021/08/19 01:58:20;;;;;;;;;;;;;;;21.13;53.82;99943.72;5097791;28;19946;-57
2021/08/19 02:00:48;;;;;;;;;;;;;;;21.12;53.49;99947.41;5096927;27;19947;-57
2021/08/19 02:03:17;;;;;;;;;;;;;;;21.12;53.54;99950.94;5099013;28;20951;-56
2021/08/19 02:05:48;;;;;;;;;;;;;;;21.12;53.84;99955.50;5092580;27;20059;-50
2021/08/19 02:08:17;;;;;;;;;;;;;;;21.10;53.62;99950.22;5102116;27;19973;-56
2021/08/19 02:10:46;;;;;;;;;;;;;;;21.09;53.48;99953.03;5099099;27;19928;-54
2021/08/19 02:13:15;;;;;;;;;;;;;;;21.09;53.28;99953.91;5097499;28;19954;-57
2021/08/19 02:15:43;;;;;;;;;;;;;;;21.08;53.71;99962.06;5098769;28;19939;-57
2021/08/19 02:18:11;;;;;;;;;;;;;;;21.07;53.29;99961.22;5093132;28;19928;-56
2021/08/19 02:20:40;;;;;;;;;;;;;;;21.06;53.57;99957.72;5089121;28;19935;-57
2021/08/19 02:23:08;;;;;;;;;;;;;;;21.07;53.38;99953.16;5097773;27;19951;-57
2021/08/19 02:25:36;;;;;;;;;;;;;;;21.08;53.60;99956.69;5098102;28;20237;-57
2021/08/19 02:28:04;;;;;;;;;;;;;;;21.06;53.66;99955.03;5095581;28;19935;-56
2021/08/19 02:30:32;;;;;;;;;;;;;;;21.05;53.72;99960.50;5107508;27;20111;-57
2021/08/19 02:33:03;;;;;;;;;;;;;;;21.06;53.72;99963.09;5095929;28;20910;-56
2021/08/19 02:35:32;;;;;;;;;;;;;;;21.05;53.55;99966.75;5095786;28;19946;-56
2021/08/19 02:38:04;;;;;;;;;;;;;;;21.05;53.25;99961.38;5094315;28;19936;-57
2021/08/19 02:40:34;;;;;;;;;;;;;;;21.04;53.48;99953.44;5099137;28;19935;-57
2021/08/19 02:43:02;;;;;;;;;;;;;;;21.04;53.48;99970.41;5098216;28;19977;-54
2021/08/19 02:45:30;;;;;;;;;;;;;;;21.03;53.57;99966.00;5098385;28;19954;-56
2021/08/19 02:47:58;;;;;;;;;;;;;;;21.04;53.48;99965.03;5095687;28;19981;-56
2021/08/19 02:50:27;;;;;;;;;;;;;;;21.02;53.37;99969.69;5095454;28;19928;-55
2021/08/19 02:52:55;;;;;;;;;;;;;;;21.04;53.54;99969.56;5101615;28;19932;-50
2021/08/19 02:55:25;;;;;;;;;;;;;;;21.03;53.74;99966.00;5098627;28;19989;-54
2021/08/19 02:57:53;;;;;;;;;;;;;;;21.03;53.32;99971.38;5092936;28;20188;-56
2021/08/19 03:00:21;;;;;;;;;;;;;;;21.03;53.37;99975.91;5097536;27;20432;-56
2021/08/19 03:02:49;;;;;;;;;;;;;;;21.03;53.72;99978.63;5093873;28;19928;-52
2021/08/19 03:05:18;;;;;;;;;;;;;;;21.03;53.50;99974.06;5097433;28;20014;-55
2021/08/19 03:07:46;;;;;;;;;;;;;;;21.04;53.37;99974.94;5101892;27;20501;-55
2021/08/19 03:10:14;;;;;;;;;;;;;;;21.03;53.23;99973.22;5102223;28;19932;-56
2021/08/19 03:12:44;;;;;;;;;;;;;;;21.02;53.35;99968.84;5099120;28;20012;-52
2021/08/19 03:15:12;;;;;;;;;;;;;;;21.02;53.32;99975.06;5108263;27;19928;-57
2021/08/19 03:17:40;;;;;;;;;;;;;;;21.01;53.35;99970.69;5100318;28;19924;-57
2021/08/19 03:20:09;;;;;;;;;;;;;;;21.01;53.44;99976.06;5105454;27;19938;-52
2021/08/19 03:22:38;;;;;;;;;;;;;;;20.98;53.09;99970.91;5100866;28;20964;-57
2021/08/19 03:25:09;;;;;;;;;;;;;;;21.00;52.98;99982.41;5101387;27;19931;-56
2021/08/19 03:27:37;;;;;;;;;;;;;;;21.00;53.30;99987.78;5103144;27;19924;-57
2021/08/19 03:30:07;;;;;;;;;;;;;;;20.99;53.42;99972.63;5104509;28;19927;-51
2021/08/19 03:32:36;;;;;;;;;;;;;;;20.98;53.34;99976.28;5100969;28;19967;-57
2021/08/19 03:35:05;;;;;;;;;;;;;;;20.99;53.54;99987.91;5111595;27;19935;-57
2021/08/19 03:37:33;;;;;;;;;;;;;;;20.97;53.45;99981.81;5107055;27;20332;-53
2021/08/19 03:40:01;;;;;;;;;;;;;;;20.96;53.23;99978.28;5098987;28;20016;-53
2021/08/19 03:42:30;;;;;;;;;;;;;;;20.96;53.19;99980.09;5095752;28;19927;-57
2021/08/19 03:44:58;;;;;;;;;;;;;;;20.96;53.21;99985.47;5093489;27;19934;-49
2021/08/19 03:47:27;;;;;;;;;;;;;;;20.96;53.31;99993.53;5095568;27;19940;-56
2021/08/19 03:49:55;;;;;;;;;;;;;;;20.97;53.21;99993.44;5096650;27;20003;-56
2021/08/19 03:52:23;;;;;;;;;;;;;;;20.97;53.14;99996.13;5098196;28;19962;-56
2021/08/19 03:54:51;;;;;;;;;;;;;;;20.97;53.14;100000.63;5098044;27;19932;-56
2021/08/19 03:57:19;;;;;;;;;;;;;;;20.96;53.44;100005.16;5101985;28;19928;-57
2021/08/19 03:59:47;;;;;;;;;;;;;;;20.96;53.37;100004.28;5100851;28;20927;-56
2021/08/19 04:02:15;;;;;;;;;;;;;;;20.96;53.10;100012.34;5097019;27;19932;-55
2021/08/19 04:04:45;;;;;;;;;;;;;;;20.95;53.33;100003.44;5107998;28;19971;-57
2021/08/19 04:07:13;;;;;;;;;;;;;;;20.94;53.13;100007.09;5108291;27;19958;-57
2021/08/19 04:09:41;;;;;;;;;;;;;;;20.95;53.35;100006.13;5104870;27;19928;-57
2021/08/19 04:12:09;;;;;;;;;;;;;;;20.98;52.96;100005.88;5105699;28;20016;-54
2021/08/19 04:14:37;;;;;;;;;;;;;;;20.99;52.62;100014.81;5104809;27;19927;-59
2021/08/19 04:17:05;;;;;;;;;;;;;;;20.99;52.70;100021.03;5105401;27;20164;-51
2021/08/19 04:19:33;;;;;;;;;;;;;;;21.01;52.89;100011.00;5112387;27;19923;-57
2021/08/19 04:22:03;;;;;;;;;;;;;;;21.04;52.70;100018.81;5108135;27;19974;-56
2021/08/19 04:24:30;;;;;;;;;;;;;;;21.06;52.65;100015.97;5109944;27;19982;-56
2021/08/19 04:26:59;;;;;;;;;;;;;;;21.08;53.14;100021.22;5106406;27;19924;-56
2021/08/19 04:29:27;;;;;;;;;;;;;;;21.08;52.73;100022.09;5099990;27;19924;-57
2021/08/19 04:31:55;;;;;;;;;;;;;;;21.08;53.09;100026.59;5103978;27;19958;-53
2021/08/19 04:34:25;;;;;;;;;;;;;;;21.08;52.68;100010.47;5103585;27;19965;-52
2021/08/19 04:36:53;;;;;;;;;;;;;;;21.07;52.99;100017.69;5100999;28;20004;-58
2021/08/19 04:39:23;;;;;;;;;;;;;;;21.08;52.81;100021.22;5099910;27;19984;-50
2021/08/19 04:41:52;;;;;;;;;;;;;;;21.08;52.59;100024.78;5100070;27;19932;-59
2021/08/19 04:44:19;;;;;;;;;;;;;;;21.08;52.61;100021.22;5102268;27;19931;-58
2021/08/19 04:46:47;;;;;;;;;;;;;;;21.08;53.08;100015.84;5107217;27;20361;-57
2021/08/19 04:49:15;;;;;;;;;;;;;;;21.08;52.79;100018.53;5107371;27;19935;-57
2021/08/19 04:51:45;;;;;;;;;;;;;;;21.06;52.81;100024.94;5106126;27;19935;-57
2021/08/19 04:54:13;;;;;;;;;;;;;;;21.07;53.15;100033.84;5104609;27;19924;-57
2021/08/19 04:56:43;;;;;;;;;;;;;;;21.07;53.04;100033.84;5099348;28;20409;-56
2021/08/19 04:59:11;;;;;;;;;;;;;;;21.07;52.96;100036.53;5097194;28;19928;-56
2021/08/19 05:01:39;;;;;;;;;;;;;;;21.06;52.54;100035.69;5102244;27;19932;-57
2021/08/19 05:04:08;;;;;;;;;;;;;;;21.06;53.00;100035.69;5108690;27;19928;-57
2021/08/19 05:06:36;;;;;;;;;;;;;;;21.08;52.80;100042.75;5101793;28;20314;-57
2021/08/19 05:09:05;;;;;;;;;;;;;;;21.08;52.66;100034.69;5104958;28;19928;-58
2021/08/19 05:11:33;;;;;;;;;;;;;;;21.06;52.90;100038.38;5107302;27;20054;-58
2021/08/19 05:14:03;;;;;;;;;;;;;;;21.08;52.81;100046.31;5099515;28;19935;-58
2021/08/19 05:16:32;;;;;;;;;;;;;;;21.08;52.60;100045.44;5104147;27;20068;-54
2021/08/19 05:19:00;;;;;;;;;;;;;;;21.08;53.41;100046.31;5103465;28;20314;-56
2021/08/19 05:21:29;;;;;;;;;;;;;;;21.07;53.03;100049.97;5104202;28;19963;-57
2021/08/19 05:23:57;;;;;;;;;;;;;;;21.10;53.08;100052.38;5098368;28;20061;-59
2021/08/19 05:26:25;;;;;;;;;;;;;;;21.11;53.85;100048.72;5107801;27;20272;-59
2021/08/19 05:28:54;;;;;;;;;;;;;;;21.13;53.69;100051.28;5111347;27;19990;-51
2021/08/19 05:31:24;;;;;;;;;;;;;;;21.13;54.58;100049.47;5102618;27;20000;-59
2021/08/19 05:33:54;;;;;;;;;;;;;;;21.21;54.34;100056.91;5103346;28;20546;-56
2021/08/19 05:36:23;;;;;;;;;;;;;;;21.26;54.02;100060.03;5100184;28;19928;-57
2021/08/19 05:38:51;;;;;;;;;;;;;;;21.31;54.58;100078.50;5106418;27;20268;-57
2021/08/19 05:41:18;;;;;;;;;;;;;;;21.35;54.54;100070.06;5095175;27;19932;-56
2021/08/19 05:43:46;;;;;;;;;;;;;;;21.42;54.45;100072.22;5101862;28;19924;-56
2021/08/19 05:46:14;;;;;;;;;;;;;;;21.43;54.50;100072.06;5104778;28;19927;-50
2021/08/19 05:48:44;;;;;;;;;;;;;;;21.43;54.46;100069.38;5112154;28;19970;-48
2021/08/19 05:51:12;;;;;;;;;;;;;;;21.40;54.67;100078.56;5105059;27;20020;-46
2021/08/19 05:53:40;;;;;;;;;;;;;;;21.40;54.53;100077.72;5094743;28;19932;-46
2021/08/19 05:56:09;;;;;;;;;;;;;;;21.39;54.59;100084.06;5110820;28;19940;-46
2021/08/19 05:58:37;;;;;;;;;;;;;;;21.38;54.53;100087.78;5096966;28;19928;-48
2021/08/19 06:01:05;;;;;;;;;;;;;;;21.37;54.90;100088.75;5101345;28;19960;-45
2021/08/19 06:03:33;;;;;;;;;;;;;;;21.36;56.08;100081.66;5096271;27;19928;-44
2021/08/19 06:06:03;;;;;;;;;;;;;;;21.34;55.37;100094.38;5095071;28;19931;-46
2021/08/19 06:08:31;;;;;;;;;;;;;;;21.32;55.55;100096.34;5087095;28;19998;-50
2021/08/19 06:10:59;;;;;;;;;;;;;;;21.34;55.11;100102.44;5099479;28;20026;-47
2021/08/19 06:13:27;;;;;;;;;;;;;;;21.37;55.97;100099.50;5096585;28;20306;-51
2021/08/19 06:15:55;;;;;;;;;;;;;;;21.36;56.12;100100.47;5092833;27;20359;-46
2021/08/19 06:18:23;;;;;;;;;;;;;;;21.34;56.34;100106.00;5118613;27;20051;-46
2021/08/19 06:20:52;;;;;;;;;;;;;;;21.33;56.47;100104.28;5088586;28;20472;-46
2021/08/19 06:23:21;;;;;;;;;;;;;;;21.32;56.35;100110.63;5089766;28;19955;-45
2021/08/19 06:25:49;;;;;;;;;;;;;;;21.34;55.91;100107.81;5092456;28;19935;-45
2021/08/19 06:28:23;;;;;;;;;;;;;;;21.33;55.90;100119.56;5096429;28;19931;-44
2021/08/19 06:30:53;;;;;;;;;;;;;;;21.31;56.29;100111.63;5093004;28;19932;-46
2021/08/19 06:33:21;;;;;;;;;;;;;;;21.30;55.38;100115.31;5094304;28;19932;-45
2021/08/19 06:35:49;;;;;;;;;;;;;;;21.31;55.09;100124.22;5089594;28;20359;-45
2021/08/19 06:38:17;;;;;;;;;;;;;;;21.29;55.39;100120.78;5097365;28;19932;-46
2021/08/19 06:40:47;;;;;;;;;;;;;;;21.28;55.34;100119.94;5097644;28;20027;-45
2021/08/19 06:43:15;;;;;;;;;;;;;;;21.27;55.20;100125.47;5094949;28;19942;-44
2021/08/19 06:45:43;;;;;;;;;;;;;;;21.29;54.99;100128.84;5093007;28;19928;-44
2021/08/19 06:48:11;;;;;;;;;;;;;;;21.29;55.03;100120.78;5088228;28;20254;-46
2021/08/19 06:50:39;;;;;;;;;;;;;;;21.29;54.79;100127.03;5091912;28;19928;-44
2021/08/19 06:53:07;;;;;;;;;;;;;;;21.32;54.53;100134.00;5096720;28;19950;-51
2021/08/19 06:55:35;;;;;;;;;;;;;;;21.31;54.20;100119.69;5095129;28;20102;-52
2021/08/19 06:58:04;;;;;;;;;;;;;;;21.29;54.57;100124.34;5095060;28;19950;-49
2021/08/19 07:00:32;;;;;;;;;;;;;;;21.29;54.92;100124.34;5094911;28;19959;-49
2021/08/19 07:03:01;;;;;;;;;;;;;;;21.31;54.80;100129.59;5087399;28;19949;-46
2021/08/19 07:05:29;;;;;;;;;;;;;;;21.31;54.33;100124.22;5095423;28;19939;-50
2021/08/19 07:07:59;;;;;;;;;;;;;;;21.31;54.29;100133.13;5097894;28;20220;-53
2021/08/19 07:10:27;;;;;;;;;;;;;;;21.30;54.46;100126.06;5097324;28;19938;-54
2021/08/19 07:12:55;;;;;;;;;;;;;;;21.31;54.22;100138.50;5093758;28;19939;-51
2021/08/19 07:15:25;;;;;;;;;;;;;;;21.31;53.90;100132.28;5099364;28;19928;-53
2021/08/19 07:17:53;;;;;;;;;;;;;;;21.30;53.97;100131.44;5102429;28;20348;-52
2021/08/19 07:20:21;;;;;;;;;;;;;;;21.31;53.97;100134.97;5102841;28;19942;-50
2021/08/19 07:22:49;;;;;;;;;;;;;;;21.29;54.46;100129.72;5103805;28;19939;-54
2021/08/19 07:25:18;;;;;;;;;;;;;;;21.29;54.17;100145.00;5094450;28;19931;-52
2021/08/19 07:27:46;;;;;;;;;;;;;;;21.29;54.18;100150.38;5096582;28;19947;-50
2021/08/19 07:30:17;;;;;;;;;;;;;;;21.29;53.81;100150.38;5090432;28;19997;-51
2021/08/19 07:32:47;;;;;;;;;;;;;;;21.28;53.94;100146.84;5090556;28;20060;-49
2021/08/19 07:35:16;;;;;;;;;;;;;;;21.27;53.86;100144.28;5095981;28;19931;-49
2021/08/19 07:37:48;;;;;;;;;;;;;;;21.26;53.69;100143.41;5098589;28;19992;-51
2021/08/19 07:40:17;;;;;;;;;;;;;;;21.27;54.27;100152.34;5095760;28;19928;-50
2021/08/19 07:42:44;;;;;;;;;;;;;;;21.27;53.71;100147.81;5095256;28;19947;-50
2021/08/19 07:45:13;;;;;;;;;;;;;;;21.30;53.09;100152.09;5091695;28;19943;-49
2021/08/19 07:47:41;;;;;;;;;;;;;;;21.28;53.15;100143.31;5093498;28;19938;-50
2021/08/19 07:50:12;;;;;;;;;;;;;;;21.29;53.32;100153.94;5100242;28;19977;-51
2021/08/19 07:52:40;;;;;;;;;;;;;;;21.41;52.48;100162.84;5107124;28;20005;-51
2021/08/19 07:55:09;;;;;;;;;;;;;;;21.49;52.34;100159.50;5099230;28;19932;-47
2021/08/19 07:57:41;;;;;;;;;;;;;;;21.39;52.76;100162.09;5099234;28;19931;-53
2021/08/19 08:00:10;;;;;;;;;;;;;;;21.35;52.84;100169.59;5092592;28;19998;-51
2021/08/19 08:02:38;;;;;;;;;;;;;;;21.33;52.91;100178.75;5095487;28;20089;-49
2021/08/19 08:05:07;;;;;;;;;;;;;;;21.30;53.82;100169.09;5097351;28;19928;-49
2021/08/19 08:07:36;;;;;;;;;;;;;;;21.31;53.33;100168.09;5103604;28;19954;-50
2021/08/19 08:10:05;;;;;;;;;;;;;;;21.30;53.60;100166.41;5102621;28;19974;-47
2021/08/19 08:12:34;;;;;;;;;;;;;;;21.32;52.70;100171.66;5096552;28;19936;-49
2021/08/19 08:15:02;;;;;;;;;;;;;;;21.34;53.72;100175.94;5093804;28;20738;-50
2021/08/19 08:17:30;;;;;;;;;;;;;;;21.47;52.59;100180.28;5099724;28;19927;-54
2021/08/19 08:19:58;;;;;;;;;;;;;;;21.55;52.04;100175.16;5102461;28;19928;-53
2021/08/19 08:22:26;;;;;;;;;;;;;;;21.45;52.30;100176.91;5102401;27;19928;-52
2021/08/19 08:24:55;;;;;;;;;;;;;;;21.39;52.53;100179.09;5099280;28;19963;-51
2021/08/19 08:27:23;;;;;;;;;;;;;;;21.36;52.12;100186.56;5094307;28;19928;-49
2021/08/19 08:29:52;;;;;;;;;;;;;;;21.33;52.70;100184.97;5095651;28;22298;-53
2021/08/19 08:32:20;;;;;;;;;;;;;;;21.37;52.77;100188.28;5095926;28;20360;-52
2021/08/19 08:34:48;;;;;;;;;;;;;;;21.52;52.06;100194.22;5097614;28;19963;-53
2021/08/19 08:37:16;;;;;;;;;;;;;;;21.60;51.82;100199.84;5099783;28;19928;-52
2021/08/19 08:39:44;;;;;;;;;;;;;;;21.65;51.54;100194.94;5100985;28;20738;-53
2021/08/19 08:42:14;;;;;;;;;;;;;;;21.67;51.57;100198.38;5092016;28;20728;-52
2021/08/19 08:44:43;;;;;;;;;;;;;;;21.67;51.50;100194.84;5097227;28;20005;-50
2021/08/19 08:47:13;;;;;;;;;;;;;;;21.63;51.80;100209.50;5095964;28;19932;-48
2021/08/19 08:49:42;;;;;;;;;;;;;;;21.72;51.27;100212.31;5099292;28;19967;-53
2021/08/19 08:52:10;;;;;;;;;;;;;;;21.76;51.28;100214.75;5097838;28;20092;-49
2021/08/19 08:54:39;;;;;;;;;;;;;;;21.80;50.95;100210.81;5099673;28;19967;-54
2021/08/19 08:57:06;;;;;;;;;;;;;;;21.81;50.70;100205.28;5096364;28;19924;-47
2021/08/19 08:59:36;;;;;;;;;;;;;;;21.84;50.57;100229.28;5098508;28;19928;-52
2021/08/19 09:02:04;;;;;;;;;;;;;;;21.86;50.58;100230.00;5097035;28;19939;-48
2021/08/19 09:04:33;;;;;;;;;;;;;;;21.88;50.33;100219.13;5097655;28;20183;-49
2021/08/19 09:07:05;;;;;;;;;;;;;;;21.89;51.13;100235.16;5097326;28;19931;-50
2021/08/19 09:09:34;;;;;;;;;;;;;;;21.86;51.35;100230.00;5098582;28;19931;-51
2021/08/19 09:12:04;;;;;;;;;;;;;;;21.70;51.58;100241.19;5091788;28;19938;-48
2021/08/19 09:14:35;;;;;;;;;;;;;;;21.87;51.11;100244.34;5097898;28;19931;-52
2021/08/19 09:17:04;;;;;;;;;;;;;;;21.90;50.94;100246.75;5100932;28;19973;-51
2021/08/19 09:19:33;;;;;;;;;;;;;;;21.96;50.56;100250.75;5099479;28;19970;-54
2021/08/19 09:22:03;;;;;;;;;;;;;;;22.00;50.83;100245.00;5093477;28;20031;-51
2021/08/19 09:24:32;;;;;;;;;;;;;;;22.03;51.00;100244.75;5094472;28;19932;-50
2021/08/19 09:27:09;;;;;;;;;;;;;;;22.07;50.85;100253.44;5096630;28;19931;-50
2021/08/19 09:29:37;;;;;;;;;;;;;;;22.00;50.86;100245.00;5094096;28;19959;-52
2021/08/19 09:32:17;;;;;;;;;;;;;;;22.09;50.54;100256.00;5095394;28;19928;-46
2021/08/19 09:34:46;;;;;;;;;;;;;;;22.12;50.64;100250.38;5097337;28;20448;-51
2021/08/19 09:37:15;;;;;;;;;;;;;;;22.13;50.72;100255.63;5089308;28;19931;-50
2021/08/19 09:39:44;;;;;;;;;;;;;;;22.16;50.41;100268.81;5095854;28;19932;-50
2021/08/19 09:42:13;;;;;;;;;;;;;;;22.16;50.64;100254.50;5097675;28;19931;-49
2021/08/19 09:44:42;;;;;;;;;;;;;;;22.21;50.63;100263.91;5097845;28;19931;-48
2021/08/19 09:47:27;;;;;;;;;;;;;;;22.24;50.69;100265.47;5092080;28;19962;-49
2021/08/19 09:50:11;;;;;;;;;;;;;;;22.26;50.45;100266.22;5094326;28;19931;-51
2021/08/19 09:52:40;;;;;;;;;;;;;;;22.28;50.22;100268.78;5090337;28;20424;-49
2021/08/19 09:55:22;;;;;;;;;;;;;;;22.31;50.33;100276.59;5099030;28;19947;-50
2021/08/19 09:57:50;;;;;;;;;;;;;;;22.28;50.49;100269.63;5096296;28;19932;-54
2021/08/19 10:00:25;;;;;;;;;;;;;;;22.33;50.60;100272.78;5094774;28;19950;-51
2021/08/19 10:02:54;;;;;;;;;;;;;;;22.35;50.42;100278.94;5092785;28;19939;-48
2021/08/19 10:05:22;;;;;;;;;;;;;;;22.37;50.54;100284.19;5088910;28;19950;-49
2021/08/19 10:07:51;;;;;;;;;;;;;;;22.40;50.39;100288.47;5092237;28;20101;-48
2021/08/19 10:10:19;;;;;;;;;;;;;;;22.40;50.51;100283.94;5097532;28;20003;-54
2021/08/19 10:12:48;;;;;;;;;;;;;;;22.40;50.54;100292.00;5098265;28;19997;-50
2021/08/19 10:15:17;;;;;;;;;;;;;;;22.42;50.45;100289.19;5095084;28;20042;-49
2021/08/19 10:17:47;;;;;;;;;;;;;;;22.30;50.55;100291.03;5092431;28;19938;-54
2021/08/19 10:20:17;;;;;;;;;;;;;;;22.38;50.18;100305.63;5092464;28;19975;-50
2021/08/19 10:22:47;;;;;;;;;;;;;;;22.41;50.23;100296.41;5092880;28;19927;-50
2021/08/19 10:25:18;;;;;;;;;;;;;;;22.45;49.94;100292.47;5096267;28;19938;-52
2021/08/19 10:27:46;;;;;;;;;;;;;;;22.49;50.37;100290.38;5099530;28;19934;-52
2021/08/19 10:30:21;;;;;;;;;;;;;;;22.48;50.39;100297.63;5095357;28;19928;-49
2021/08/19 10:32:51;;;;;;;;;;;;;;;22.52;50.47;100296.38;5091443;28;19966;-48
2021/08/19 10:35:26;;;;;;;;;;;;;;;22.56;50.25;100299.63;5090860;28;20365;-51
2021/08/19 10:38:04;;;;;;;;;;;;;;;22.59;50.19;100301.22;5095288;28;19963;-50
2021/08/19 10:40:39;;;;;;;;;;;;;;;22.63;50.14;100303.53;5098333;28;19923;-51
2021/08/19 10:43:26;;;;;;;;;;;;;;;22.64;50.08;100299.88;5093882;28;19950;-51
2021/08/19 10:46:04;;;;;;;;;;;;;;;22.50;50.45;100302.88;5095842;28;20074;-52
2021/08/19 10:48:43;;;;;;;;;;;;;;;22.53;50.48;100308.84;5088526;28;19949;-48
2021/08/19 10:51:11;;;;;;;;;;;;;;;22.61;50.09;100305.50;5094412;28;19927;-49
2021/08/19 10:53:39;;;;;;;;;;;;;;;22.64;49.82;100307.94;5097483;28;19924;-49
2021/08/19 10:56:09;;;;;;;;;;;;;;;22.49;50.04;100306.56;5100937;28;19931;-48
2021/08/19 10:58:37;;;;;;;;;;;;;;;22.46;50.24;100312.22;5093279;28;19943;-48
2021/08/19 11:01:20;;;;;;;;;;;;;;;22.60;49.97;100309.19;5088245;28;19967;-49
2021/08/19 11:03:49;;;;;;;;;;;;;;;22.70;49.80;100318.19;5086008;28;20208;-53
2021/08/19 11:06:18;;;;;;;;;;;;;;;22.74;49.88;100312.56;5094607;28;20313;-51
2021/08/19 11:08:47;;;;;;;;;;;;;;;19.69;55.53;100306.78;5095558;28;19934;-50
2021/08/19 11:11:27;;;;;;;;;;;;;;;19.06;57.55;100330.88;5101090;28;19943;-51
2021/08/19 11:14:03;;;;;;;;;;;;;;;19.10;58.91;100340.41;5093840;28;19997;-52
2021/08/19 11:16:31;;;;;;;;;;;;;;;18.86;53.61;100337.59;5088392;28;19928;-53
2021/08/19 11:19:16;;;;;;;;;;;;;;;18.94;51.47;100346.00;5096869;28;19927;-50
2021/08/19 11:21:49;;;;;;;;;;;;;;;18.89;50.02;100346.28;5094613;28;19932;-49
2021/08/19 11:24:17;;;;;;;;;;;;;;;18.89;49.03;100348.13;5097606;28;19982;-52
2021/08/19 11:26:57;;;;;;;;;;;;;;;18.84;48.15;100345.72;5099181;28;19928;-50
2021/08/19 11:29:29;;;;;;;;;;;;;;;19.24;48.13;100342.16;5093683;28;20564;-50
2021/08/19 11:31:57;;;;;;;;;;;;;;;19.55;49.65;100342.63;5080373;28;19942;-52
2021/08/19 11:34:25;;;;;;;;;;;;;;;19.52;50.40;100337.50;5098685;28;19938;-50
2021/08/19 11:36:53;;;;;;;;;;;;;;;19.50;50.45;100348.34;5095989;28;19977;-53
2021/08/19 11:39:26;;;;;;;;;;;;;;;19.49;51.09;100365.41;5098017;28;20041;-50
2021/08/19 11:41:59;;;;;;;;;;;;;;;19.46;51.32;100373.63;5096935;28;19947;-54
2021/08/19 11:44:28;;;;;;;;;;;;;;;19.37;49.52;100379.66;5091757;28;19928;-49
2021/08/19 11:46:59;;;;;;;;;;;;;;;19.56;47.98;100380.06;5091360;28;20001;-47
2021/08/19 11:49:28;;;;;;;;;;;;;;;19.35;48.41;100382.44;5096094;28;20393;-53
2021/08/19 11:52:00;;;;;;;;;;;;;;;19.18;47.00;100385.47;5096446;28;19932;-50
2021/08/19 11:54:40;;;;;;;;;;;;;;;19.12;46.60;100385.88;5098636;28;19928;-49
2021/08/19 11:57:20;;;;;;;;;;;;;;;19.04;46.70;100389.97;5095675;28;20000;-52
2021/08/19 11:59:55;;;;;;;;;;;;;;;18.85;46.45;100381.44;5105406;27;19927;-49
2021/08/19 12:02:23;;;;;;;;;;;;;;;18.84;46.08;100391.25;5103818;28;19940;-48
2021/08/19 12:05:01;;;;;;;;;;;;;;;18.72;45.79;100382.22;5108270;28;19981;-50
2021/08/19 12:07:29;;;;;;;;;;;;;;;18.94;48.58;100388.00;5106266;28;20398;-50
2021/08/19 12:09:58;;;;;;;;;;;;;;;19.00;48.97;100391.13;5107898;27;19932;-51
2021/08/19 12:12:28;;;;;;;;;;;;;;;18.93;47.33;100397.88;5103938;28;19928;-51
2021/08/19 12:14:56;;;;;;;;;;;;;;;18.77;46.99;100400.69;5097577;28;19928;-48
2021/08/19 12:17:24;;;;;;;;;;;;;;;18.85;49.18;100401.03;5103336;28;19935;-47
2021/08/19 12:20:07;;;;;;;;;;;;;;;18.69;47.03;100403.03;5106650;28;19927;-48
2021/08/19 12:22:35;;;;;;;;;;;;;;;18.58;46.95;100395.69;5107196;28;19992;-47
2021/08/19 12:25:13;;;;;;;;;;;;;;;18.59;46.87;100400.09;5109938;28;19950;-46
2021/08/19 12:27:42;;;;;;;;;;;;;;;18.62;45.74;100404.41;5100808;28;19963;-47
2021/08/19 12:30:11;;;;;;;;;;;;;;;18.48;46.02;100400.81;5110987;28;19927;-49
2021/08/19 12:32:39;;;;;;;;;;;;;;;18.48;45.27;100413.38;5105946;28;20261;-48
2021/08/19 12:35:08;;;;;;;;;;;;;;;18.51;44.88;100408.63;5106473;28;19989;-48
2021/08/19 12:37:37;;;;;;;;;;;;;;;18.63;47.42;100398.09;5107876;28;19931;-48
2021/08/19 12:40:08;;;;;;;;;;;;;;;18.72;48.24;100403.66;5107975;28;19992;-46
2021/08/19 12:42:37;;;;;;;;;;;;;;;18.80;48.47;100405.00;5104756;28;19959;-49
2021/08/19 12:45:08;;;;;;;;;;;;;;;18.76;47.35;100404.34;5110580;28;19954;-46
2021/08/19 12:47:37;;;;;;;;;;;;;;;18.71;46.82;100404.66;5104099;28;20011;-47
2021/08/19 12:50:07;;;;;;;;;;;;;;;18.65;46.17;100412.22;5096741;28;19928;-52
2021/08/19 12:52:36;;;;;;;;;;;;;;;18.54;45.96;100411.13;5114795;28;19939;-46